Time,TemperatureF,DewpointF,PressureIn,WindDirection,WindDirectionDegrees,WindSpeedMPH,WindSpeedGustMPH,Humidity,HourlyPrecipIn,Conditions,Clouds,dailyrainin,SolarRadiationWatts/m^2,SoftwareType,DateUTC
2013-02-02 00:02:00,28.0,14.0,-100.00,SE,141,10.0,16.0,54,0.00,,,0.00,0.000000,,2013-02-02 06:02:00,
2013-02-02 00:32:00,28.0,14.0,-100.00,SSE,151,8.0,14.0,54,0.00,,,0.00,0.000000,,2013-02-02 06:32:00,
2013-02-02 00:42:00,28.0,14.0,-100.00,SSE,151,8.0,14.0,54,0.00,,,0.00,0.000000,,2013-02-02 06:42:00,
2013-02-02 00:52:00,28.0,14.0,-100.00,SSE,151,8.0,14.0,54,0.00,,,0.00,0.000000,,2013-02-02 06:52:00,
2013-02-02 01:02:00,28.0,14.0,-100.00,SSE,151,8.0,14.0,54,0.00,,,0.00,0.000000,,2013-02-02 07:02:00,
2013-02-02 01:32:00,28.0,15.0,-100.00,SE,143,6.0,11.0,57,0.00,,,0.00,0.000000,,2013-02-02 07:32:00,
2013-02-02 01:42:00,28.0,15.0,-100.00,SE,143,6.0,11.0,57,0.00,,,0.00,0.000000,,2013-02-02 07:42:00,
2013-02-02 01:52:00,28.0,15.0,-100.00,SE,143,6.0,11.0,57,0.00,,,0.00,0.000000,,2013-02-02 07:52:00,
2013-02-02 02:01:00,28.0,15.0,-100.00,SE,143,6.0,11.0,57,0.00,,,0.00,0.000000,,2013-02-02 08:01:00,
2013-02-02 02:32:00,29.0,15.0,-100.00,South,172,3.0,8.0,55,0.00,,,0.00,0.000000,,2013-02-02 08:32:00,
2013-02-02 02:42:00,29.0,15.0,-100.00,South,172,3.0,8.0,55,0.00,,,0.00,0.000000,,2013-02-02 08:42:00,
2013-02-02 02:53:00,29.0,15.0,-100.00,South,172,3.0,8.0,55,0.00,,,0.00,0.000000,,2013-02-02 08:53:00,
2013-02-02 03:01:00,29.0,15.0,-100.00,South,172,3.0,8.0,55,0.00,,,0.00,0.000000,,2013-02-02 09:01:00,
2013-02-02 03:32:00,32.0,17.0,-100.00,SW,228,5.0,7.0,53,0.00,,,0.00,0.000000,,2013-02-02 09:32:00,
2013-02-02 03:42:00,32.0,17.0,-100.00,SW,228,5.0,7.0,53,0.00,,,0.00,0.000000,,2013-02-02 09:42:00,
2013-02-02 03:52:00,32.0,17.0,-100.00,SW,228,5.0,7.0,53,0.00,,,0.00,0.000000,,2013-02-02 09:52:00,
2013-02-02 04:01:00,32.0,17.0,-100.00,SW,228,5.0,7.0,53,0.00,,,0.00,0.000000,,2013-02-02 10:01:00,
2013-02-02 04:32:00,29.0,15.0,-100.00,South,179,3.0,9.0,56,0.00,,,0.00,0.000000,,2013-02-02 10:32:00,
2013-02-02 04:42:00,29.0,15.0,-100.00,South,179,3.0,9.0,56,0.00,,,0.00,0.000000,,2013-02-02 10:42:00,
2013-02-02 04:52:00,29.0,15.0,-100.00,South,179,3.0,9.0,56,0.00,,,0.00,0.000000,,2013-02-02 10:52:00,
2013-02-02 05:01:00,29.0,15.0,-100.00,South,179,3.0,9.0,56,0.00,,,0.00,0.000000,,2013-02-02 11:01:00,
2013-02-02 05:32:00,33.0,18.0,-100.00,West,263,6.0,8.0,53,0.00,,,0.00,0.000000,,2013-02-02 11:32:00,
2013-02-02 05:42:00,33.0,18.0,-100.00,West,263,6.0,8.0,53,0.00,,,0.00,0.000000,,2013-02-02 11:42:00,
2013-02-02 05:52:00,33.0,18.0,-100.00,West,263,6.0,8.0,53,0.00,,,0.00,0.000000,,2013-02-02 11:52:00,
2013-02-02 06:01:00,33.0,18.0,-100.00,West,263,6.0,8.0,53,0.00,,,0.00,0.000000,,2013-02-02 12:01:00,
2013-02-02 06:32:00,34.0,20.0,-100.00,WNW,290,5.0,9.0,55,0.00,,,0.00,0.000000,,2013-02-02 12:32:00,
2013-02-02 06:42:00,34.0,20.0,-100.00,WNW,290,5.0,9.0,55,0.00,,,0.00,0.000000,,2013-02-02 12:42:00,
2013-02-02 06:52:00,34.0,20.0,-100.00,WNW,290,5.0,9.0,55,0.00,,,0.00,0.000000,,2013-02-02 12:52:00,
2013-02-02 07:02:00,34.0,20.0,-100.00,WNW,290,5.0,9.0,55,0.00,,,0.00,0.000000,,2013-02-02 13:02:00,
2013-02-02 07:33:00,37.0,23.0,-100.00,West,272,7.0,10.0,56,0.00,,,0.00,0.000000,,2013-02-02 13:33:00,
2013-02-02 07:42:00,37.0,23.0,-100.00,West,272,7.0,10.0,56,0.00,,,0.00,0.000000,,2013-02-02 13:42:00,
2013-02-02 07:52:00,37.0,23.0,-100.00,West,272,7.0,10.0,56,0.00,,,0.00,0.000000,,2013-02-02 13:52:00,
2013-02-02 08:02:00,37.0,23.0,-100.00,West,272,7.0,10.0,56,0.00,,,0.00,0.000000,,2013-02-02 14:02:00,
2013-02-02 08:33:00,39.0,25.0,-100.00,West,275,9.0,14.0,58,0.00,,,0.00,40.000000,,2013-02-02 14:33:00,
2013-02-02 09:33:00,41.0,25.0,-100.00,WNW,287,11.0,16.0,53,0.00,,,0.00,232.000000,,2013-02-02 15:33:00,
2013-02-02 10:03:00,41.0,25.0,-100.00,WNW,287,11.0,16.0,53,0.00,,,0.00,232.000000,,2013-02-02 16:03:00,
2013-02-02 10:32:00,44.0,28.0,-100.00,WNW,297,9.0,16.0,52,0.00,,,0.00,434.000000,,2013-02-02 16:32:00,
2013-02-02 10:42:00,44.0,28.0,-100.00,WNW,297,9.0,16.0,52,0.00,,,0.00,434.000000,,2013-02-02 16:42:00,
2013-02-02 10:52:00,44.0,28.0,-100.00,WNW,297,9.0,16.0,52,0.00,,,0.00,434.000000,,2013-02-02 16:52:00,
2013-02-02 11:02:00,44.0,28.0,-100.00,WNW,297,9.0,16.0,52,0.00,,,0.00,434.000000,,2013-02-02 17:02:00,
2013-02-02 11:33:00,47.0,28.0,-100.00,NW,305,9.0,16.0,48,0.00,,,0.00,607.000000,,2013-02-02 17:33:00,
2013-02-02 11:42:00,47.0,28.0,-100.00,NW,305,9.0,16.0,48,0.00,,,0.00,607.000000,,2013-02-02 17:42:00,
2013-02-02 11:52:00,47.0,28.0,-100.00,NW,305,9.0,16.0,48,0.00,,,0.00,607.000000,,2013-02-02 17:52:00,
2013-02-02 12:02:00,47.0,28.0,-100.00,NW,305,9.0,16.0,48,0.00,,,0.00,607.000000,,2013-02-02 18:02:00,
2013-02-02 12:32:00,49.0,27.0,-100.00,NW,317,9.0,16.0,42,0.00,,,0.00,733.000000,,2013-02-02 18:32:00,
2013-02-02 12:42:00,49.0,27.0,-100.00,NW,317,9.0,16.0,42,0.00,,,0.00,733.000000,,2013-02-02 18:42:00,
2013-02-02 12:52:00,49.0,27.0,-100.00,NW,317,9.0,16.0,42,0.00,,,0.00,733.000000,,2013-02-02 18:52:00,
2013-02-02 13:02:00,49.0,27.0,-100.00,NW,317,9.0,16.0,42,0.00,,,0.00,733.000000,,2013-02-02 19:02:00,
2013-02-02 13:32:00,51.0,29.0,-100.00,WNW,293,10.0,16.0,43,0.00,,,0.00,761.000000,,2013-02-02 19:32:00,
2013-02-02 13:42:00,51.0,29.0,-100.00,WNW,293,10.0,16.0,43,0.00,,,0.00,761.000000,,2013-02-02 19:42:00,
2013-02-02 13:52:00,51.0,29.0,-100.00,WNW,293,10.0,16.0,43,0.00,,,0.00,761.000000,,2013-02-02 19:52:00,
2013-02-02 14:01:00,51.0,29.0,-100.00,WNW,293,10.0,16.0,43,0.00,,,0.00,761.000000,,2013-02-02 20:01:00,
2013-02-02 14:32:00,52.0,29.0,-100.00,WNW,295,11.0,17.0,41,0.00,,,0.00,731.000000,,2013-02-02 20:32:00,
2013-02-02 14:42:00,52.0,29.0,-100.00,WNW,295,11.0,17.0,41,0.00,,,0.00,731.000000,,2013-02-02 20:42:00,
2013-02-02 14:52:00,52.0,29.0,-100.00,WNW,295,11.0,17.0,41,0.00,,,0.00,731.000000,,2013-02-02 20:52:00,
2013-02-02 15:02:00,52.0,29.0,-100.00,WNW,295,11.0,17.0,41,0.00,,,0.00,731.000000,,2013-02-02 21:02:00,
2013-02-02 15:32:00,53.0,25.0,-100.00,WNW,298,9.0,17.0,33,0.00,,,0.00,629.000000,,2013-02-02 21:32:00,
2013-02-02 15:42:00,53.0,25.0,-100.00,WNW,298,9.0,17.0,33,0.00,,,0.00,629.000000,,2013-02-02 21:42:00,
2013-02-02 15:52:00,53.0,25.0,-100.00,WNW,298,9.0,17.0,33,0.00,,,0.00,629.000000,,2013-02-02 21:52:00,
2013-02-02 16:02:00,53.0,25.0,-100.00,WNW,298,9.0,17.0,33,0.00,,,0.00,629.000000,,2013-02-02 22:02:00,
2013-02-02 16:32:00,52.0,24.0,-100.00,NW,316,9.0,18.0,33,0.00,,,0.00,460.000000,,2013-02-02 22:32:00,
2013-02-02 16:42:00,52.0,24.0,-100.00,NW,316,9.0,18.0,33,0.00,,,0.00,460.000000,,2013-02-02 22:42:00,
2013-02-02 16:52:00,52.0,24.0,-100.00,NW,316,9.0,18.0,33,0.00,,,0.00,460.000000,,2013-02-02 22:52:00,
2013-02-02 17:02:00,52.0,24.0,-100.00,NW,316,9.0,18.0,33,0.00,,,0.00,460.000000,,2013-02-02 23:02:00,
2013-02-02 17:32:00,50.0,23.0,-100.00,NW,305,9.0,16.0,34,0.00,,,0.00,245.000000,,2013-02-02 23:32:00,
2013-02-02 17:42:00,50.0,23.0,-100.00,NW,305,9.0,16.0,34,0.00,,,0.00,245.000000,,2013-02-02 23:42:00,
2013-02-02 17:52:00,50.0,23.0,-100.00,NW,305,9.0,16.0,34,0.00,,,0.00,245.000000,,2013-02-02 23:52:00,
2013-02-02 18:02:00,50.0,23.0,-100.00,NW,305,9.0,16.0,34,0.00,,,0.00,245.000000,,2013-02-03 00:02:00,
2013-02-02 18:32:00,46.0,24.0,-100.00,NW,308,8.0,14.0,42,0.00,,,0.00,34.000000,,2013-02-03 00:32:00,
2013-02-02 18:42:00,46.0,24.0,-100.00,NW,308,8.0,14.0,42,0.00,,,0.00,34.000000,,2013-02-03 00:42:00,
2013-02-02 18:52:00,46.0,24.0,-100.00,NW,308,8.0,14.0,42,0.00,,,0.00,34.000000,,2013-02-03 00:52:00,
2013-02-02 19:02:00,46.0,24.0,-100.00,NW,308,8.0,14.0,42,0.00,,,0.00,34.000000,,2013-02-03 01:02:00,
2013-02-02 19:32:00,44.0,25.0,-100.00,WNW,300,7.0,11.0,46,0.00,,,0.00,0.000000,,2013-02-03 01:32:00,
2013-02-02 19:42:00,44.0,25.0,-100.00,WNW,300,7.0,11.0,46,0.00,,,0.00,0.000000,,2013-02-03 01:42:00,
2013-02-02 19:52:00,44.0,25.0,-100.00,WNW,300,7.0,11.0,46,0.00,,,0.00,0.000000,,2013-02-03 01:52:00,
2013-02-02 20:01:00,44.0,25.0,-100.00,WNW,300,7.0,11.0,46,0.00,,,0.00,0.000000,,2013-02-03 02:01:00,
2013-02-02 20:32:00,42.0,25.0,-100.00,West,277,5.0,9.0,50,0.00,,,0.00,0.000000,,2013-02-03 02:32:00,
2013-02-02 20:42:00,42.0,25.0,-100.00,West,277,5.0,9.0,50,0.00,,,0.00,0.000000,,2013-02-03 02:42:00,
2013-02-02 20:52:00,42.0,25.0,-100.00,West,277,5.0,9.0,50,0.00,,,0.00,0.000000,,2013-02-03 02:52:00,
2013-02-02 21:02:00,42.0,25.0,-100.00,West,277,5.0,9.0,50,0.00,,,0.00,0.000000,,2013-02-03 03:02:00,
2013-02-02 21:32:00,43.0,26.0,-100.00,WNW,282,7.0,12.0,50,0.00,,,0.00,0.000000,,2013-02-03 03:32:00,
2013-02-02 21:42:00,43.0,26.0,-100.00,WNW,282,7.0,12.0,50,0.00,,,0.00,0.000000,,2013-02-03 03:42:00,
2013-02-02 21:52:00,43.0,26.0,-100.00,WNW,282,7.0,12.0,50,0.00,,,0.00,0.000000,,2013-02-03 03:52:00,
2013-02-02 22:01:00,43.0,26.0,-100.00,WNW,282,7.0,12.0,50,0.00,,,0.00,0.000000,,2013-02-03 04:01:00,
2013-02-02 22:32:00,44.0,27.0,-100.00,WNW,285,9.0,16.0,50,0.00,,,0.00,0.000000,,2013-02-03 04:32:00,
2013-02-02 22:42:00,44.0,27.0,-100.00,WNW,285,9.0,16.0,50,0.00,,,0.00,0.000000,,2013-02-03 04:42:00,
2013-02-02 22:52:00,44.0,27.0,-100.00,WNW,285,9.0,16.0,50,0.00,,,0.00,0.000000,,2013-02-03 04:52:00,
2013-02-02 23:03:00,44.0,27.0,-100.00,WNW,285,9.0,16.0,50,0.00,,,0.00,0.000000,,2013-02-03 05:03:00,
2013-02-02 23:32:00,45.0,27.0,-100.00,WNW,283,9.0,16.0,50,0.00,,,0.00,0.000000,,2013-02-03 05:32:00,
2013-02-02 23:42:00,45.0,27.0,-100.00,WNW,283,9.0,16.0,50,0.00,,,0.00,0.000000,,2013-02-03 05:42:00,
2013-02-02 23:52:00,45.0,27.0,-100.00,WNW,283,9.0,16.0,50,0.00,,,0.00,0.000000,,2013-02-03 05:52:00,